sensor_id;sensor_type;location;lat;lon;timestamp;P1;durP1;ratioP1;P2;durP2;ratioP2
28968;SDS011;16076;51.194;6.642;2022-11-15T00:02:11;21.50;;;11.27;;
28968;SDS011;16076;51.194;6.642;2022-11-15T00:04:36;15.95;;;9.98;;
28968;SDS011;16076;51.194;6.642;2022-11-15T00:07:02;17.83;;;9.98;;
28968;SDS011;16076;51.194;6.642;2022-11-15T00:09:28;16.30;;;10.48;;
28968;SDS011;16076;51.194;6.642;2022-11-15T00:11:53;14.43;;;9.18;;
28968;SDS011;16076;51.194;6.642;2022-11-15T00:14:19;19.25;;;10.95;;
28968;SDS011;16076;51.194;6.642;2022-11-15T00:16:45;18.08;;;10.13;;
28968;SDS011;16076;51.194;6.642;2022-11-15T00:19:11;16.92;;;9.55;;
28968;SDS011;16076;51.194;6.642;2022-11-15T00:21:36;16.13;;;9.48;;
28968;SDS011;16076;51.194;6.642;2022-11-15T00:24:02;16.92;;;10.27;;
28968;SDS011;16076;51.194;6.642;2022-11-15T00:26:28;15.85;;;8.90;;
28968;SDS011;16076;51.194;6.642;2022-11-15T00:28:53;16.27;;;9.38;;
28968;SDS011;16076;51.194;6.642;2022-11-15T00:31:19;17.10;;;9.80;;
28968;SDS011;16076;51.194;6.642;2022-11-15T00:33:45;16.23;;;9.38;;
28968;SDS011;16076;51.194;6.642;2022-11-15T00:36:11;18.08;;;9.48;;
28968;SDS011;16076;51.194;6.642;2022-11-15T00:38:38;16.85;;;9.45;;
28968;SDS011;16076;51.194;6.642;2022-11-15T00:41:05;13.85;;;9.60;;
28968;SDS011;16076;51.194;6.642;2022-11-15T00:43:31;15.07;;;9.32;;
28968;SDS011;16076;51.194;6.642;2022-11-15T00:45:58;17.30;;;9.65;;
28968;SDS011;16076;51.194;6.642;2022-11-15T00:48:23;20.08;;;10.60;;
28968;SDS011;16076;51.194;6.642;2022-11-15T00:50:49;15.27;;;10.15;;
28968;SDS011;16076;51.194;6.642;2022-11-15T00:53:15;13.68;;;9.70;;
28968;SDS011;16076;51.194;6.642;2022-11-15T00:55:42;17.23;;;9.95;;
28968;SDS011;16076;51.194;6.642;2022-11-15T00:58:08;16.33;;;9.80;;
28968;SDS011;16076;51.194;6.642;2022-11-15T01:00:36;15.45;;;9.90;;
28968;SDS011;16076;51.194;6.642;2022-11-15T01:03:01;17.25;;;9.93;;
28968;SDS011;16076;51.194;6.642;2022-11-15T01:05:27;18.02;;;10.43;;
28968;SDS011;16076;51.194;6.642;2022-11-15T01:07:54;17.98;;;10.68;;
28968;SDS011;16076;51.194;6.642;2022-11-15T01:10:21;20.30;;;11.07;;
28968;SDS011;16076;51.194;6.642;2022-11-15T01:12:48;18.85;;;10.70;;
28968;SDS011;16076;51.194;6.642;2022-11-15T01:15:14;15.90;;;10.90;;
28968;SDS011;16076;51.194;6.642;2022-11-15T01:17:40;15.38;;;9.98;;
28968;SDS011;16076;51.194;6.642;2022-11-15T01:20:06;21.77;;;11.73;;
28968;SDS011;16076;51.194;6.642;2022-11-15T01:22:32;18.55;;;10.32;;
28968;SDS011;16076;51.194;6.642;2022-11-15T01:24:58;21.92;;;10.20;;
28968;SDS011;16076;51.194;6.642;2022-11-15T01:27:24;16.60;;;9.77;;
28968;SDS011;16076;51.194;6.642;2022-11-15T01:29:50;17.05;;;10.13;;
28968;SDS011;16076;51.194;6.642;2022-11-15T01:32:16;18.38;;;9.52;;
28968;SDS011;16076;51.194;6.642;2022-11-15T01:34:41;17.70;;;9.88;;
28968;SDS011;16076;51.194;6.642;2022-11-15T01:37:09;17.13;;;9.63;;
28968;SDS011;16076;51.194;6.642;2022-11-15T01:39:35;14.50;;;9.60;;
28968;SDS011;16076;51.194;6.642;2022-11-15T01:42:01;14.88;;;8.93;;
28968;SDS011;16076;51.194;6.642;2022-11-15T01:46:59;16.17;;;9.93;;
28968;SDS011;16076;51.194;6.642;2022-11-15T01:51:58;15.85;;;8.90;;
28968;SDS011;16076;51.194;6.642;2022-11-15T01:54:29;10.20;;;6.30;;
28968;SDS011;16076;51.194;6.642;2022-11-15T01:56:56;15.15;;;9.25;;
28968;SDS011;16076;51.194;6.642;2022-11-15T01:59:27;16.35;;;9.00;;
28968;SDS011;16076;51.194;6.642;2022-11-15T02:01:53;18.80;;;9.93;;
28968;SDS011;16076;51.194;6.642;2022-11-15T02:04:24;14.73;;;9.25;;
28968;SDS011;16076;51.194;6.642;2022-11-15T02:06:57;19.77;;;9.65;;
28968;SDS011;16076;51.194;6.642;2022-11-15T02:09:24;14.57;;;9.68;;
28968;SDS011;16076;51.194;6.642;2022-11-15T02:11:50;13.55;;;9.45;;
28968;SDS011;16076;51.194;6.642;2022-11-15T02:14:18;14.85;;;9.05;;
28968;SDS011;16076;51.194;6.642;2022-11-15T02:16:52;16.92;;;9.20;;
28968;SDS011;16076;51.194;6.642;2022-11-15T02:30:52;16.45;;;9.30;;
28968;SDS011;16076;51.194;6.642;2022-11-15T02:33:49;14.30;;;8.77;;
28968;SDS011;16076;51.194;6.642;2022-11-15T02:39:20;15.77;;;8.82;;
28968;SDS011;16076;51.194;6.642;2022-11-15T02:42:01;14.48;;;8.05;;
28968;SDS011;16076;51.194;6.642;2022-11-15T02:45:03;12.90;;;8.65;;
28968;SDS011;16076;51.194;6.642;2022-11-15T02:47:33;13.15;;;8.95;;
28968;SDS011;16076;51.194;6.642;2022-11-15T02:50:07;15.95;;;9.18;;
28968;SDS011;16076;51.194;6.642;2022-11-15T02:52:35;15.65;;;8.63;;
28968;SDS011;16076;51.194;6.642;2022-11-15T02:55:01;12.70;;;8.32;;
28968;SDS011;16076;51.194;6.642;2022-11-15T03:00:02;18.98;;;9.02;;
28968;SDS011;16076;51.194;6.642;2022-11-15T03:05:41;12.30;;;8.10;;
28968;SDS011;16076;51.194;6.642;2022-11-15T03:08:22;15.25;;;8.73;;
28968;SDS011;16076;51.194;6.642;2022-11-15T03:11:03;17.00;;;9.05;;
28968;SDS011;16076;51.194;6.642;2022-11-15T03:16:24;16.42;;;8.95;;
28968;SDS011;16076;51.194;6.642;2022-11-15T03:22:08;13.95;;;9.43;;
28968;SDS011;16076;51.194;6.642;2022-11-15T03:24:39;17.05;;;8.98;;
28968;SDS011;16076;51.194;6.642;2022-11-15T03:27:09;16.50;;;9.80;;
28968;SDS011;16076;51.194;6.642;2022-11-15T03:29:38;19.17;;;10.45;;
28968;SDS011;16076;51.194;6.642;2022-11-15T03:32:11;16.63;;;10.48;;
28968;SDS011;16076;51.194;6.642;2022-11-15T03:34:47;18.85;;;10.65;;
28968;SDS011;16076;51.194;6.642;2022-11-15T03:37:24;20.10;;;11.38;;
28968;SDS011;16076;51.194;6.642;2022-11-15T03:40:03;18.15;;;9.95;;
28968;SDS011;16076;51.194;6.642;2022-11-15T03:42:35;17.83;;;10.05;;
28968;SDS011;16076;51.194;6.642;2022-11-15T03:45:35;18.60;;;10.15;;
28968;SDS011;16076;51.194;6.642;2022-11-15T03:48:13;12.40;;;8.13;;
28968;SDS011;16076;51.194;6.642;2022-11-15T03:50:43;13.75;;;8.63;;
28968;SDS011;16076;51.194;6.642;2022-11-15T03:53:10;13.05;;;8.43;;
28968;SDS011;16076;51.194;6.642;2022-11-15T03:55:37;15.82;;;9.30;;
28968;SDS011;16076;51.194;6.642;2022-11-15T03:58:03;15.60;;;8.75;;
28968;SDS011;16076;51.194;6.642;2022-11-15T04:00:28;14.95;;;8.77;;
28968;SDS011;16076;51.194;6.642;2022-11-15T04:02:54;12.50;;;7.97;;
28968;SDS011;16076;51.194;6.642;2022-11-15T04:05:20;12.73;;;8.18;;
28968;SDS011;16076;51.194;6.642;2022-11-15T04:07:46;17.48;;;9.18;;
28968;SDS011;16076;51.194;6.642;2022-11-15T04:10:12;14.63;;;9.30;;
28968;SDS011;16076;51.194;6.642;2022-11-15T04:12:39;14.65;;;8.65;;
28968;SDS011;16076;51.194;6.642;2022-11-15T04:15:12;14.52;;;8.50;;
28968;SDS011;16076;51.194;6.642;2022-11-15T04:17:44;13.80;;;8.00;;
28968;SDS011;16076;51.194;6.642;2022-11-15T04:20:16;13.02;;;7.95;;
28968;SDS011;16076;51.194;6.642;2022-11-15T04:23:17;12.10;;;8.40;;
28968;SDS011;16076;51.194;6.642;2022-11-15T04:26:07;16.23;;;8.63;;
28968;SDS011;16076;51.194;6.642;2022-11-15T04:28:34;14.82;;;9.70;;
28968;SDS011;16076;51.194;6.642;2022-11-15T04:31:00;18.38;;;8.98;;
28968;SDS011;16076;51.194;6.642;2022-11-15T04:33:25;14.13;;;9.20;;
28968;SDS011;16076;51.194;6.642;2022-11-15T04:35:51;16.83;;;8.55;;
28968;SDS011;16076;51.194;6.642;2022-11-15T04:38:36;14.50;;;8.05;;
28968;SDS011;16076;51.194;6.642;2022-11-15T04:41:04;16.23;;;8.70;;
28968;SDS011;16076;51.194;6.642;2022-11-15T04:43:30;13.73;;;7.25;;
28968;SDS011;16076;51.194;6.642;2022-11-15T04:45:56;13.05;;;7.70;;
28968;SDS011;16076;51.194;6.642;2022-11-15T04:48:21;16.60;;;8.40;;
28968;SDS011;16076;51.194;6.642;2022-11-15T04:50:47;14.32;;;7.47;;
28968;SDS011;16076;51.194;6.642;2022-11-15T04:53:13;16.83;;;7.90;;
28968;SDS011;16076;51.194;6.642;2022-11-15T04:55:39;12.27;;;7.70;;
28968;SDS011;16076;51.194;6.642;2022-11-15T04:58:05;14.20;;;8.23;;
28968;SDS011;16076;51.194;6.642;2022-11-15T05:00:30;13.13;;;7.90;;
28968;SDS011;16076;51.194;6.642;2022-11-15T05:02:56;10.82;;;7.32;;
28968;SDS011;16076;51.194;6.642;2022-11-15T05:05:43;13.32;;;8.10;;
28968;SDS011;16076;51.194;6.642;2022-11-15T05:08:11;12.98;;;7.57;;
28968;SDS011;16076;51.194;6.642;2022-11-15T05:10:37;12.23;;;7.75;;
28968;SDS011;16076;51.194;6.642;2022-11-15T05:13:03;13.02;;;7.53;;
28968;SDS011;16076;51.194;6.642;2022-11-15T05:15:28;12.25;;;7.30;;
28968;SDS011;16076;51.194;6.642;2022-11-15T05:17:58;12.20;;;7.97;;
28968;SDS011;16076;51.194;6.642;2022-11-15T05:20:25;13.10;;;7.40;;
28968;SDS011;16076;51.194;6.642;2022-11-15T05:22:50;11.52;;;7.18;;
28968;SDS011;16076;51.194;6.642;2022-11-15T05:25:18;12.32;;;7.32;;
28968;SDS011;16076;51.194;6.642;2022-11-15T05:27:44;12.02;;;7.18;;
28968;SDS011;16076;51.194;6.642;2022-11-15T05:30:10;12.82;;;7.82;;
28968;SDS011;16076;51.194;6.642;2022-11-15T05:32:36;13.32;;;7.97;;
28968;SDS011;16076;51.194;6.642;2022-11-15T05:35:02;13.68;;;8.25;;
28968;SDS011;16076;51.194;6.642;2022-11-15T05:37:30;9.35;;;7.00;;
28968;SDS011;16076;51.194;6.642;2022-11-15T05:39:56;14.07;;;8.57;;
28968;SDS011;16076;51.194;6.642;2022-11-15T05:42:21;9.25;;;7.00;;
28968;SDS011;16076;51.194;6.642;2022-11-15T05:44:48;12.35;;;7.25;;
28968;SDS011;16076;51.194;6.642;2022-11-15T05:47:16;12.90;;;8.10;;
28968;SDS011;16076;51.194;6.642;2022-11-15T05:49:46;14.35;;;7.97;;
28968;SDS011;16076;51.194;6.642;2022-11-15T05:52:15;16.63;;;8.23;;
28968;SDS011;16076;51.194;6.642;2022-11-15T05:54:44;12.43;;;7.93;;
28968;SDS011;16076;51.194;6.642;2022-11-15T05:57:10;12.93;;;7.60;;
28968;SDS011;16076;51.194;6.642;2022-11-15T05:59:36;12.27;;;6.85;;
28968;SDS011;16076;51.194;6.642;2022-11-15T06:02:03;10.60;;;7.47;;
28968;SDS011;16076;51.194;6.642;2022-11-15T06:04:28;12.05;;;8.38;;
28968;SDS011;16076;51.194;6.642;2022-11-15T06:06:54;12.05;;;7.82;;
28968;SDS011;16076;51.194;6.642;2022-11-15T06:09:20;12.05;;;8.05;;
28968;SDS011;16076;51.194;6.642;2022-11-15T06:11:46;12.40;;;7.07;;
28968;SDS011;16076;51.194;6.642;2022-11-15T06:14:12;10.55;;;7.72;;
28968;SDS011;16076;51.194;6.642;2022-11-15T06:16:38;12.32;;;7.53;;
28968;SDS011;16076;51.194;6.642;2022-11-15T06:19:05;13.00;;;7.90;;
28968;SDS011;16076;51.194;6.642;2022-11-15T06:21:33;14.30;;;7.57;;
28968;SDS011;16076;51.194;6.642;2022-11-15T06:23:59;11.45;;;7.15;;
28968;SDS011;16076;51.194;6.642;2022-11-15T06:26:25;14.38;;;7.85;;
28968;SDS011;16076;51.194;6.642;2022-11-15T06:28:51;11.70;;;7.70;;
28968;SDS011;16076;51.194;6.642;2022-11-15T06:31:16;14.80;;;7.43;;
28968;SDS011;16076;51.194;6.642;2022-11-15T06:33:42;12.88;;;7.70;;
28968;SDS011;16076;51.194;6.642;2022-11-15T06:36:09;10.82;;;6.70;;
28968;SDS011;16076;51.194;6.642;2022-11-15T06:38:38;11.27;;;7.07;;
28968;SDS011;16076;51.194;6.642;2022-11-15T06:41:08;10.10;;;6.00;;
28968;SDS011;16076;51.194;6.642;2022-11-15T06:43:37;11.35;;;6.65;;
28968;SDS011;16076;51.194;6.642;2022-11-15T06:46:03;9.90;;;6.03;;
28968;SDS011;16076;51.194;6.642;2022-11-15T06:48:30;12.38;;;6.45;;
28968;SDS011;16076;51.194;6.642;2022-11-15T06:50:57;12.93;;;6.40;;
28968;SDS011;16076;51.194;6.642;2022-11-15T06:53:24;9.15;;;5.53;;
28968;SDS011;16076;51.194;6.642;2022-11-15T06:55:51;9.60;;;5.10;;
28968;SDS011;16076;51.194;6.642;2022-11-15T06:58:16;9.65;;;5.18;;
28968;SDS011;16076;51.194;6.642;2022-11-15T07:00:42;7.10;;;4.90;;
28968;SDS011;16076;51.194;6.642;2022-11-15T07:03:08;7.40;;;5.13;;
28968;SDS011;16076;51.194;6.642;2022-11-15T07:05:34;10.23;;;5.57;;
28968;SDS011;16076;51.194;6.642;2022-11-15T07:08:00;8.52;;;4.70;;
28968;SDS011;16076;51.194;6.642;2022-11-15T07:10:27;7.93;;;5.00;;
28968;SDS011;16076;51.194;6.642;2022-11-15T07:12:53;8.35;;;3.78;;
28968;SDS011;16076;51.194;6.642;2022-11-15T07:15:20;5.18;;;4.10;;
28968;SDS011;16076;51.194;6.642;2022-11-15T07:17:48;6.63;;;3.65;;
28968;SDS011;16076;51.194;6.642;2022-11-15T07:20:14;7.43;;;4.22;;
28968;SDS011;16076;51.194;6.642;2022-11-15T07:22:40;5.50;;;3.97;;
28968;SDS011;16076;51.194;6.642;2022-11-15T07:25:07;5.53;;;3.20;;
28968;SDS011;16076;51.194;6.642;2022-11-15T07:27:33;5.38;;;2.92;;
28968;SDS011;16076;51.194;6.642;2022-11-15T07:29:59;4.13;;;2.83;;
28968;SDS011;16076;51.194;6.642;2022-11-15T07:32:25;4.30;;;3.10;;
28968;SDS011;16076;51.194;6.642;2022-11-15T07:34:51;3.92;;;2.88;;
28968;SDS011;16076;51.194;6.642;2022-11-15T07:37:16;5.43;;;2.78;;
28968;SDS011;16076;51.194;6.642;2022-11-15T07:39:42;4.32;;;3.05;;
28968;SDS011;16076;51.194;6.642;2022-11-15T07:42:09;5.32;;;3.20;;
28968;SDS011;16076;51.194;6.642;2022-11-15T07:44:53;6.13;;;3.08;;
28968;SDS011;16076;51.194;6.642;2022-11-15T07:47:18;3.45;;;2.33;;
28968;SDS011;16076;51.194;6.642;2022-11-15T07:49:45;3.33;;;2.08;;
28968;SDS011;16076;51.194;6.642;2022-11-15T07:52:11;2.75;;;1.98;;
28968;SDS011;16076;51.194;6.642;2022-11-15T07:54:37;2.20;;;1.75;;
28968;SDS011;16076;51.194;6.642;2022-11-15T07:57:04;3.53;;;2.20;;
28968;SDS011;16076;51.194;6.642;2022-11-15T07:59:30;3.30;;;2.38;;
28968;SDS011;16076;51.194;6.642;2022-11-15T08:01:56;3.25;;;2.40;;
28968;SDS011;16076;51.194;6.642;2022-11-15T08:04:24;5.20;;;3.15;;
28968;SDS011;16076;51.194;6.642;2022-11-15T08:06:50;4.15;;;2.92;;
28968;SDS011;16076;51.194;6.642;2022-11-15T08:09:15;5.10;;;2.45;;
28968;SDS011;16076;51.194;6.642;2022-11-15T08:11:41;7.35;;;2.88;;
28968;SDS011;16076;51.194;6.642;2022-11-15T08:14:07;5.28;;;2.78;;
28968;SDS011;16076;51.194;6.642;2022-11-15T08:16:32;6.45;;;2.60;;
28968;SDS011;16076;51.194;6.642;2022-11-15T08:19:00;3.63;;;2.40;;
28968;SDS011;16076;51.194;6.642;2022-11-15T08:21:26;6.20;;;2.80;;
28968;SDS011;16076;51.194;6.642;2022-11-15T08:23:52;4.57;;;2.25;;
28968;SDS011;16076;51.194;6.642;2022-11-15T08:26:19;3.30;;;2.10;;
28968;SDS011;16076;51.194;6.642;2022-11-15T08:28:44;4.15;;;2.17;;
28968;SDS011;16076;51.194;6.642;2022-11-15T08:31:14;3.70;;;2.38;;
28968;SDS011;16076;51.194;6.642;2022-11-15T08:33:42;3.22;;;2.75;;
28968;SDS011;16076;51.194;6.642;2022-11-15T08:36:11;5.45;;;2.53;;
28968;SDS011;16076;51.194;6.642;2022-11-15T08:38:39;7.63;;;2.65;;
28968;SDS011;16076;51.194;6.642;2022-11-15T08:41:05;7.50;;;2.72;;
28968;SDS011;16076;51.194;6.642;2022-11-15T08:43:32;6.68;;;3.97;;
28968;SDS011;16076;51.194;6.642;2022-11-15T08:45:58;7.97;;;4.20;;
28968;SDS011;16076;51.194;6.642;2022-11-15T08:48:24;7.15;;;4.22;;
28968;SDS011;16076;51.194;6.642;2022-11-15T08:50:54;8.85;;;4.20;;
28968;SDS011;16076;51.194;6.642;2022-11-15T08:53:23;9.18;;;4.10;;
28968;SDS011;16076;51.194;6.642;2022-11-15T08:55:48;8.77;;;4.03;;
28968;SDS011;16076;51.194;6.642;2022-11-15T08:58:14;4.80;;;3.25;;
28968;SDS011;16076;51.194;6.642;2022-11-15T09:00:40;5.82;;;3.78;;
28968;SDS011;16076;51.194;6.642;2022-11-15T09:03:09;7.78;;;3.20;;
28968;SDS011;16076;51.194;6.642;2022-11-15T09:05:38;5.05;;;3.10;;
28968;SDS011;16076;51.194;6.642;2022-11-15T09:08:05;4.85;;;3.33;;
28968;SDS011;16076;51.194;6.642;2022-11-15T09:10:31;13.50;;;3.90;;
28968;SDS011;16076;51.194;6.642;2022-11-15T09:12:57;9.45;;;2.95;;
28968;SDS011;16076;51.194;6.642;2022-11-15T09:15:23;8.88;;;3.03;;
28968;SDS011;16076;51.194;6.642;2022-11-15T09:17:48;4.78;;;2.70;;
28968;SDS011;16076;51.194;6.642;2022-11-15T09:20:14;4.82;;;3.08;;
28968;SDS011;16076;51.194;6.642;2022-11-15T09:22:40;4.93;;;2.13;;
28968;SDS011;16076;51.194;6.642;2022-11-15T09:25:06;7.85;;;2.70;;
28968;SDS011;16076;51.194;6.642;2022-11-15T09:27:32;3.95;;;2.15;;
28968;SDS011;16076;51.194;6.642;2022-11-15T09:29:58;5.57;;;2.63;;
28968;SDS011;16076;51.194;6.642;2022-11-15T09:32:27;2.17;;;1.92;;
28968;SDS011;16076;51.194;6.642;2022-11-15T09:34:55;3.47;;;2.22;;
28968;SDS011;16076;51.194;6.642;2022-11-15T09:37:21;4.00;;;1.80;;
28968;SDS011;16076;51.194;6.642;2022-11-15T09:39:49;4.63;;;2.03;;
28968;SDS011;16076;51.194;6.642;2022-11-15T09:50:15;6.38;;;2.17;;
28968;SDS011;16076;51.194;6.642;2022-11-15T09:53:08;4.18;;;2.30;;
28968;SDS011;16076;51.194;6.642;2022-11-15T09:55:40;4.40;;;1.67;;
28968;SDS011;16076;51.194;6.642;2022-11-15T10:01:00;2.83;;;1.38;;
28968;SDS011;16076;51.194;6.642;2022-11-15T10:03:35;5.88;;;1.58;;
28968;SDS011;16076;51.194;6.642;2022-11-15T10:06:08;4.75;;;1.67;;
28968;SDS011;16076;51.194;6.642;2022-11-15T10:08:45;4.67;;;1.70;;
28968;SDS011;16076;51.194;6.642;2022-11-15T10:11:30;2.33;;;1.60;;
28968;SDS011;16076;51.194;6.642;2022-11-15T10:14:02;2.55;;;1.55;;
28968;SDS011;16076;51.194;6.642;2022-11-15T10:22:29;4.88;;;1.33;;
28968;SDS011;16076;51.194;6.642;2022-11-15T10:25:00;1.90;;;1.30;;
28968;SDS011;16076;51.194;6.642;2022-11-15T10:28:03;3.45;;;1.00;;
28968;SDS011;16076;51.194;6.642;2022-11-15T10:30:50;5.10;;;1.20;;
28968;SDS011;16076;51.194;6.642;2022-11-15T10:35:46;1.73;;;1.42;;
28968;SDS011;16076;51.194;6.642;2022-11-15T10:38:12;6.03;;;1.63;;
28968;SDS011;16076;51.194;6.642;2022-11-15T10:40:38;1.67;;;1.20;;
28968;SDS011;16076;51.194;6.642;2022-11-15T10:45:34;2.63;;;1.67;;
28968;SDS011;16076;51.194;6.642;2022-11-15T10:50:39;2.85;;;1.48;;
28968;SDS011;16076;51.194;6.642;2022-11-15T10:55:52;1.48;;;1.05;;
28968;SDS011;16076;51.194;6.642;2022-11-15T11:03:44;2.67;;;1.05;;
28968;SDS011;16076;51.194;6.642;2022-11-15T11:06:23;4.63;;;1.50;;
28968;SDS011;16076;51.194;6.642;2022-11-15T11:08:56;3.63;;;1.40;;
28968;SDS011;16076;51.194;6.642;2022-11-15T11:14:25;2.92;;;1.30;;
28968;SDS011;16076;51.194;6.642;2022-11-15T11:22:20;7.75;;;1.67;;
28968;SDS011;16076;51.194;6.642;2022-11-15T11:33:57;8.18;;;1.60;;
28968;SDS011;16076;51.194;6.642;2022-11-15T11:46:48;3.25;;;1.55;;
28968;SDS011;16076;51.194;6.642;2022-11-15T12:03:40;2.20;;;0.90;;
28968;SDS011;16076;51.194;6.642;2022-11-15T12:11:35;2.65;;;1.10;;
28968;SDS011;16076;51.194;6.642;2022-11-15T12:17:03;2.40;;;1.00;;
28968;SDS011;16076;51.194;6.642;2022-11-15T12:19:29;3.25;;;1.10;;
28968;SDS011;16076;51.194;6.642;2022-11-15T12:27:57;4.80;;;1.00;;
28968;SDS011;16076;51.194;6.642;2022-11-15T12:33:28;4.72;;;0.90;;
28968;SDS011;16076;51.194;6.642;2022-11-15T12:38:56;7.68;;;0.90;;
28968;SDS011;16076;51.194;6.642;2022-11-15T12:41:24;1.80;;;0.82;;
28968;SDS011;16076;51.194;6.642;2022-11-15T12:43:56;5.65;;;0.90;;
28968;SDS011;16076;51.194;6.642;2022-11-15T12:48:57;4.78;;;1.10;;
28968;SDS011;16076;51.194;6.642;2022-11-15T13:02:23;1.55;;;0.93;;
28968;SDS011;16076;51.194;6.642;2022-11-15T13:22:41;3.65;;;1.13;;
28968;SDS011;16076;51.194;6.642;2022-11-15T13:27:48;5.30;;;1.17;;
28968;SDS011;16076;51.194;6.642;2022-11-15T13:30:23;3.70;;;1.40;;
28968;SDS011;16076;51.194;6.642;2022-11-15T13:32:52;5.97;;;1.15;;
28968;SDS011;16076;51.194;6.642;2022-11-15T13:35:26;4.10;;;1.30;;
28968;SDS011;16076;51.194;6.642;2022-11-15T13:37:54;4.97;;;1.33;;
28968;SDS011;16076;51.194;6.642;2022-11-15T13:40:28;3.25;;;1.23;;
28968;SDS011;16076;51.194;6.642;2022-11-15T13:43:13;2.65;;;1.20;;
28968;SDS011;16076;51.194;6.642;2022-11-15T13:46:19;4.10;;;1.38;;
28968;SDS011;16076;51.194;6.642;2022-11-15T13:48:46;0.85;;;0.80;;
28968;SDS011;16076;51.194;6.642;2022-11-15T13:51:37;6.15;;;1.30;;
28968;SDS011;16076;51.194;6.642;2022-11-15T13:57:39;4.95;;;1.17;;
28968;SDS011;16076;51.194;6.642;2022-11-15T14:00:30;3.75;;;1.10;;
28968;SDS011;16076;51.194;6.642;2022-11-15T14:03:21;3.55;;;1.20;;
28968;SDS011;16076;51.194;6.642;2022-11-15T14:06:02;4.03;;;1.40;;
28968;SDS011;16076;51.194;6.642;2022-11-15T14:08:41;2.43;;;1.20;;
28968;SDS011;16076;51.194;6.642;2022-11-15T14:16:43;4.53;;;1.50;;
28968;SDS011;16076;51.194;6.642;2022-11-15T14:19:12;4.20;;;1.35;;
28968;SDS011;16076;51.194;6.642;2022-11-15T14:24:39;3.03;;;1.30;;
28968;SDS011;16076;51.194;6.642;2022-11-15T14:29:52;5.32;;;1.75;;
28968;SDS011;16076;51.194;6.642;2022-11-15T14:35:01;6.47;;;1.55;;
28968;SDS011;16076;51.194;6.642;2022-11-15T14:37:32;6.60;;;2.22;;
28968;SDS011;16076;51.194;6.642;2022-11-15T14:40:03;5.30;;;2.17;;
28968;SDS011;16076;51.194;6.642;2022-11-15T14:42:32;3.88;;;2.15;;
28968;SDS011;16076;51.194;6.642;2022-11-15T14:44:58;4.80;;;2.08;;
28968;SDS011;16076;51.194;6.642;2022-11-15T14:47:26;3.05;;;1.98;;
28968;SDS011;16076;51.194;6.642;2022-11-15T14:49:51;4.63;;;2.30;;
28968;SDS011;16076;51.194;6.642;2022-11-15T14:52:27;6.22;;;2.47;;
28968;SDS011;16076;51.194;6.642;2022-11-15T14:54:58;5.97;;;2.05;;
28968;SDS011;16076;51.194;6.642;2022-11-15T14:57:24;3.17;;;2.22;;
28968;SDS011;16076;51.194;6.642;2022-11-15T14:59:50;4.40;;;2.25;;
28968;SDS011;16076;51.194;6.642;2022-11-15T15:02:18;4.03;;;2.42;;
28968;SDS011;16076;51.194;6.642;2022-11-15T15:04:49;2.30;;;2.00;;
28968;SDS011;16076;51.194;6.642;2022-11-15T15:07:17;4.57;;;2.30;;
28968;SDS011;16076;51.194;6.642;2022-11-15T15:09:43;3.75;;;2.25;;
28968;SDS011;16076;51.194;6.642;2022-11-15T15:12:28;7.20;;;2.45;;
28968;SDS011;16076;51.194;6.642;2022-11-15T15:14:56;5.35;;;2.60;;
28968;SDS011;16076;51.194;6.642;2022-11-15T15:17:21;6.03;;;2.60;;
28968;SDS011;16076;51.194;6.642;2022-11-15T15:19:47;6.50;;;2.45;;
28968;SDS011;16076;51.194;6.642;2022-11-15T15:22:16;3.53;;;2.40;;
28968;SDS011;16076;51.194;6.642;2022-11-15T15:24:44;4.97;;;2.43;;
28968;SDS011;16076;51.194;6.642;2022-11-15T15:27:11;3.53;;;2.40;;
28968;SDS011;16076;51.194;6.642;2022-11-15T15:29:40;6.68;;;2.75;;
28968;SDS011;16076;51.194;6.642;2022-11-15T15:32:10;5.72;;;2.55;;
28968;SDS011;16076;51.194;6.642;2022-11-15T15:34:38;3.17;;;2.15;;
28968;SDS011;16076;51.194;6.642;2022-11-15T15:39:39;4.22;;;2.47;;
28968;SDS011;16076;51.194;6.642;2022-11-15T15:42:04;3.17;;;2.47;;
28968;SDS011;16076;51.194;6.642;2022-11-15T15:44:30;5.85;;;2.67;;
28968;SDS011;16076;51.194;6.642;2022-11-15T15:46:56;5.95;;;2.30;;
28968;SDS011;16076;51.194;6.642;2022-11-15T15:49:22;3.38;;;2.20;;
28968;SDS011;16076;51.194;6.642;2022-11-15T15:51:48;3.45;;;2.67;;
28968;SDS011;16076;51.194;6.642;2022-11-15T15:54:14;4.70;;;2.42;;
28968;SDS011;16076;51.194;6.642;2022-11-15T15:56:39;7.43;;;1.92;;
28968;SDS011;16076;51.194;6.642;2022-11-15T15:59:05;5.28;;;2.25;;
28968;SDS011;16076;51.194;6.642;2022-11-15T16:01:31;6.32;;;2.50;;
28968;SDS011;16076;51.194;6.642;2022-11-15T16:03:59;5.38;;;2.13;;
28968;SDS011;16076;51.194;6.642;2022-11-15T16:09:04;2.80;;;2.40;;
28968;SDS011;16076;51.194;6.642;2022-11-15T16:11:33;3.22;;;1.88;;
28968;SDS011;16076;51.194;6.642;2022-11-15T16:13:59;5.75;;;2.10;;
28968;SDS011;16076;51.194;6.642;2022-11-15T16:16:25;3.92;;;2.22;;
28968;SDS011;16076;51.194;6.642;2022-11-15T16:18:53;4.60;;;2.30;;
28968;SDS011;16076;51.194;6.642;2022-11-15T16:21:21;4.88;;;2.30;;
28968;SDS011;16076;51.194;6.642;2022-11-15T16:23:47;3.72;;;2.05;;
28968;SDS011;16076;51.194;6.642;2022-11-15T16:26:23;3.28;;;1.92;;
28968;SDS011;16076;51.194;6.642;2022-11-15T16:28:51;3.97;;;1.88;;
28968;SDS011;16076;51.194;6.642;2022-11-15T16:31:17;3.95;;;2.00;;
28968;SDS011;16076;51.194;6.642;2022-11-15T16:33:44;2.20;;;1.77;;
28968;SDS011;16076;51.194;6.642;2022-11-15T16:38:50;6.95;;;2.50;;
28968;SDS011;16076;51.194;6.642;2022-11-15T16:41:16;5.03;;;2.20;;
28968;SDS011;16076;51.194;6.642;2022-11-15T16:43:46;3.40;;;2.40;;
28968;SDS011;16076;51.194;6.642;2022-11-15T16:46:22;3.72;;;1.92;;
28968;SDS011;16076;51.194;6.642;2022-11-15T16:48:51;5.45;;;2.75;;
28968;SDS011;16076;51.194;6.642;2022-11-15T16:51:21;3.22;;;2.00;;
28968;SDS011;16076;51.194;6.642;2022-11-15T16:53:52;4.57;;;1.90;;
28968;SDS011;16076;51.194;6.642;2022-11-15T16:56:27;6.85;;;2.10;;
28968;SDS011;16076;51.194;6.642;2022-11-15T16:58:54;4.13;;;2.10;;
28968;SDS011;16076;51.194;6.642;2022-11-15T17:01:25;4.35;;;1.90;;
28968;SDS011;16076;51.194;6.642;2022-11-15T17:03:52;4.57;;;2.22;;
28968;SDS011;16076;51.194;6.642;2022-11-15T17:06:21;3.20;;;2.10;;
28968;SDS011;16076;51.194;6.642;2022-11-15T17:08:50;3.78;;;2.10;;
28968;SDS011;16076;51.194;6.642;2022-11-15T17:11:17;5.05;;;2.03;;
28968;SDS011;16076;51.194;6.642;2022-11-15T17:13:44;4.32;;;2.10;;
28968;SDS011;16076;51.194;6.642;2022-11-15T17:16:13;7.47;;;1.85;;
28968;SDS011;16076;51.194;6.642;2022-11-15T17:18:41;2.72;;;2.00;;
28968;SDS011;16076;51.194;6.642;2022-11-15T17:21:13;3.67;;;1.90;;
28968;SDS011;16076;51.194;6.642;2022-11-15T17:23:41;6.13;;;3.30;;
28968;SDS011;16076;51.194;6.642;2022-11-15T17:26:07;4.50;;;2.22;;
28968;SDS011;16076;51.194;6.642;2022-11-15T17:28:35;4.65;;;2.15;;
28968;SDS011;16076;51.194;6.642;2022-11-15T17:31:04;4.10;;;1.90;;
28968;SDS011;16076;51.194;6.642;2022-11-15T17:33:37;5.13;;;2.03;;
28968;SDS011;16076;51.194;6.642;2022-11-15T17:36:05;3.53;;;2.22;;
28968;SDS011;16076;51.194;6.642;2022-11-15T17:38:33;4.90;;;2.33;;
28968;SDS011;16076;51.194;6.642;2022-11-15T17:41:03;5.90;;;2.40;;
28968;SDS011;16076;51.194;6.642;2022-11-15T17:43:36;3.63;;;2.10;;
28968;SDS011;16076;51.194;6.642;2022-11-15T17:46:06;3.03;;;1.98;;
28968;SDS011;16076;51.194;6.642;2022-11-15T17:48:33;4.78;;;2.08;;
28968;SDS011;16076;51.194;6.642;2022-11-15T17:51:00;3.70;;;2.20;;
28968;SDS011;16076;51.194;6.642;2022-11-15T17:53:34;4.15;;;2.60;;
28968;SDS011;16076;51.194;6.642;2022-11-15T17:56:08;3.50;;;2.25;;
28968;SDS011;16076;51.194;6.642;2022-11-15T17:58:41;3.22;;;2.00;;